sensor_id;sensor_type;location;lat;lon;timestamp;P1;durP1;ratioP1;P2;durP2;ratioP2
2684;SDS011;1352;48.446;9.156;2022-09-28T00:01:43;1.87;;;1.67;;
2684;SDS011;1352;48.446;9.156;2022-09-28T00:04:13;1.33;;;1.23;;
2684;SDS011;1352;48.446;9.156;2022-09-28T00:06:42;1.20;;;1.10;;
2684;SDS011;1352;48.446;9.156;2022-09-28T00:09:11;4.10;;;1.70;;
2684;SDS011;1352;48.446;9.156;2022-09-28T00:11:38;1.17;;;1.00;;
2684;SDS011;1352;48.446;9.156;2022-09-28T00:14:05;1.57;;;1.07;;
2684;SDS011;1352;48.446;9.156;2022-09-28T00:16:34;4.03;;;1.40;;
2684;SDS011;1352;48.446;9.156;2022-09-28T00:19:06;1.50;;;1.27;;
2684;SDS011;1352;48.446;9.156;2022-09-28T00:21:34;2.10;;;1.50;;
2684;SDS011;1352;48.446;9.156;2022-09-28T00:24:04;1.60;;;1.27;;
2684;SDS011;1352;48.446;9.156;2022-09-28T00:26:39;3.10;;;1.80;;
2684;SDS011;1352;48.446;9.156;2022-09-28T00:29:13;3.53;;;1.73;;
2684;SDS011;1352;48.446;9.156;2022-09-28T00:31:47;1.40;;;1.30;;
2684;SDS011;1352;48.446;9.156;2022-09-28T00:34:16;2.30;;;1.57;;
2684;SDS011;1352;48.446;9.156;2022-09-28T00:36:44;2.13;;;1.10;;
2684;SDS011;1352;48.446;9.156;2022-09-28T00:39:15;2.97;;;1.37;;
2684;SDS011;1352;48.446;9.156;2022-09-28T00:41:42;4.80;;;1.40;;
2684;SDS011;1352;48.446;9.156;2022-09-28T00:47:12;2.40;;;1.67;;
2684;SDS011;1352;48.446;9.156;2022-09-28T00:49:46;2.93;;;1.90;;
2684;SDS011;1352;48.446;9.156;2022-09-28T00:52:24;2.77;;;1.30;;
2684;SDS011;1352;48.446;9.156;2022-09-28T00:54:54;1.20;;;1.10;;
2684;SDS011;1352;48.446;9.156;2022-09-28T00:57:25;3.63;;;1.23;;
2684;SDS011;1352;48.446;9.156;2022-09-28T00:59:53;2.13;;;1.40;;
2684;SDS011;1352;48.446;9.156;2022-09-28T01:02:22;4.00;;;1.20;;
2684;SDS011;1352;48.446;9.156;2022-09-28T01:04:50;3.90;;;1.60;;
2684;SDS011;1352;48.446;9.156;2022-09-28T01:07:17;4.03;;;1.53;;
2684;SDS011;1352;48.446;9.156;2022-09-28T01:09:47;1.93;;;1.40;;
2684;SDS011;1352;48.446;9.156;2022-09-28T01:12:15;4.83;;;1.77;;
2684;SDS011;1352;48.446;9.156;2022-09-28T01:14:42;2.93;;;1.40;;
2684;SDS011;1352;48.446;9.156;2022-09-28T01:17:12;1.53;;;1.43;;
2684;SDS011;1352;48.446;9.156;2022-09-28T01:22:55;2.23;;;1.73;;
2684;SDS011;1352;48.446;9.156;2022-09-28T01:25:49;2.93;;;1.77;;
2684;SDS011;1352;48.446;9.156;2022-09-28T01:28:22;4.43;;;1.97;;
2684;SDS011;1352;48.446;9.156;2022-09-28T01:30:56;6.30;;;2.07;;
2684;SDS011;1352;48.446;9.156;2022-09-28T01:33:30;2.20;;;1.73;;
2684;SDS011;1352;48.446;9.156;2022-09-28T01:36:03;2.30;;;1.50;;
2684;SDS011;1352;48.446;9.156;2022-09-28T01:38:35;2.30;;;1.57;;
2684;SDS011;1352;48.446;9.156;2022-09-28T01:41:06;3.70;;;1.90;;
2684;SDS011;1352;48.446;9.156;2022-09-28T01:43:36;2.80;;;1.53;;
2684;SDS011;1352;48.446;9.156;2022-09-28T01:46:10;3.20;;;1.63;;
2684;SDS011;1352;48.446;9.156;2022-09-28T01:48:42;3.10;;;2.10;;
2684;SDS011;1352;48.446;9.156;2022-09-28T01:51:20;4.13;;;1.93;;
2684;SDS011;1352;48.446;9.156;2022-09-28T01:53:56;1.70;;;1.20;;
2684;SDS011;1352;48.446;9.156;2022-09-28T01:56:33;3.00;;;2.10;;
2684;SDS011;1352;48.446;9.156;2022-09-28T01:59:06;2.20;;;1.87;;
2684;SDS011;1352;48.446;9.156;2022-09-28T02:01:38;3.47;;;1.60;;
2684;SDS011;1352;48.446;9.156;2022-09-28T02:04:11;7.07;;;2.13;;
2684;SDS011;1352;48.446;9.156;2022-09-28T02:06:45;4.13;;;2.03;;
2684;SDS011;1352;48.446;9.156;2022-09-28T02:09:17;3.40;;;1.30;;
2684;SDS011;1352;48.446;9.156;2022-09-28T02:11:48;3.20;;;1.67;;
2684;SDS011;1352;48.446;9.156;2022-09-28T02:14:21;3.00;;;1.50;;
2684;SDS011;1352;48.446;9.156;2022-09-28T02:16:51;2.10;;;1.43;;
2684;SDS011;1352;48.446;9.156;2022-09-28T02:19:20;3.90;;;1.70;;
2684;SDS011;1352;48.446;9.156;2022-09-28T02:21:52;2.33;;;2.10;;
2684;SDS011;1352;48.446;9.156;2022-09-28T02:24:27;1.57;;;1.47;;
2684;SDS011;1352;48.446;9.156;2022-09-28T02:27:02;4.43;;;1.53;;
2684;SDS011;1352;48.446;9.156;2022-09-28T02:29:37;2.73;;;1.50;;
2684;SDS011;1352;48.446;9.156;2022-09-28T02:32:04;2.57;;;1.70;;
2684;SDS011;1352;48.446;9.156;2022-09-28T02:34:31;1.97;;;1.50;;
2684;SDS011;1352;48.446;9.156;2022-09-28T02:36:58;1.70;;;1.53;;
2684;SDS011;1352;48.446;9.156;2022-09-28T02:39:26;1.83;;;1.33;;
2684;SDS011;1352;48.446;9.156;2022-09-28T02:41:54;3.10;;;1.50;;
2684;SDS011;1352;48.446;9.156;2022-09-28T02:44:35;2.47;;;1.07;;
2684;SDS011;1352;48.446;9.156;2022-09-28T02:47:23;2.47;;;1.30;;
2684;SDS011;1352;48.446;9.156;2022-09-28T02:49:58;1.83;;;1.20;;
2684;SDS011;1352;48.446;9.156;2022-09-28T02:52:39;6.30;;;1.67;;
2684;SDS011;1352;48.446;9.156;2022-09-28T02:55:23;3.00;;;1.10;;
2684;SDS011;1352;48.446;9.156;2022-09-28T02:58:06;1.60;;;1.40;;
2684;SDS011;1352;48.446;9.156;2022-09-28T03:00:56;3.60;;;1.40;;
2684;SDS011;1352;48.446;9.156;2022-09-28T03:03:30;1.50;;;1.40;;
2684;SDS011;1352;48.446;9.156;2022-09-28T03:06:06;2.70;;;1.40;;
2684;SDS011;1352;48.446;9.156;2022-09-28T03:08:43;2.20;;;1.00;;
2684;SDS011;1352;48.446;9.156;2022-09-28T03:11:15;0.93;;;0.93;;
2684;SDS011;1352;48.446;9.156;2022-09-28T03:13:46;1.10;;;0.87;;
2684;SDS011;1352;48.446;9.156;2022-09-28T03:16:17;0.90;;;0.87;;
2684;SDS011;1352;48.446;9.156;2022-09-28T03:18:45;0.70;;;0.70;;
2684;SDS011;1352;48.446;9.156;2022-09-28T03:21:13;1.33;;;0.90;;
2684;SDS011;1352;48.446;9.156;2022-09-28T03:23:43;1.40;;;1.30;;
2684;SDS011;1352;48.446;9.156;2022-09-28T03:26:12;1.67;;;1.10;;
2684;SDS011;1352;48.446;9.156;2022-09-28T03:28:41;1.60;;;0.83;;
2684;SDS011;1352;48.446;9.156;2022-09-28T03:31:08;1.23;;;0.73;;
2684;SDS011;1352;48.446;9.156;2022-09-28T03:33:36;1.03;;;0.80;;
2684;SDS011;1352;48.446;9.156;2022-09-28T03:36:03;0.90;;;0.90;;
2684;SDS011;1352;48.446;9.156;2022-09-28T03:38:32;0.70;;;0.70;;
2684;SDS011;1352;48.446;9.156;2022-09-28T03:41:02;1.03;;;0.83;;
2684;SDS011;1352;48.446;9.156;2022-09-28T03:43:29;0.90;;;0.77;;
2684;SDS011;1352;48.446;9.156;2022-09-28T03:45:57;0.60;;;0.60;;
2684;SDS011;1352;48.446;9.156;2022-09-28T03:48:26;1.20;;;0.70;;
2684;SDS011;1352;48.446;9.156;2022-09-28T03:50:59;0.90;;;0.70;;
2684;SDS011;1352;48.446;9.156;2022-09-28T03:53:27;0.70;;;0.50;;
2684;SDS011;1352;48.446;9.156;2022-09-28T03:55:55;1.10;;;0.93;;
2684;SDS011;1352;48.446;9.156;2022-09-28T03:58:30;1.10;;;0.83;;
2684;SDS011;1352;48.446;9.156;2022-09-28T04:01:00;0.83;;;0.83;;
2684;SDS011;1352;48.446;9.156;2022-09-28T04:03:28;0.60;;;0.50;;
2684;SDS011;1352;48.446;9.156;2022-09-28T04:05:55;0.80;;;0.80;;
2684;SDS011;1352;48.446;9.156;2022-09-28T04:08:24;0.87;;;0.80;;
2684;SDS011;1352;48.446;9.156;2022-09-28T04:10:51;0.60;;;0.60;;
2684;SDS011;1352;48.446;9.156;2022-09-28T04:13:21;0.80;;;0.80;;
2684;SDS011;1352;48.446;9.156;2022-09-28T04:15:51;0.80;;;0.80;;
2684;SDS011;1352;48.446;9.156;2022-09-28T04:18:19;0.93;;;0.67;;
2684;SDS011;1352;48.446;9.156;2022-09-28T04:20:46;0.87;;;0.70;;
2684;SDS011;1352;48.446;9.156;2022-09-28T04:23:14;0.73;;;0.60;;
2684;SDS011;1352;48.446;9.156;2022-09-28T04:25:42;1.13;;;0.60;;
2684;SDS011;1352;48.446;9.156;2022-09-28T04:28:12;0.70;;;0.70;;
2684;SDS011;1352;48.446;9.156;2022-09-28T04:31:00;1.07;;;0.77;;
2684;SDS011;1352;48.446;9.156;2022-09-28T04:33:27;1.10;;;0.80;;
2684;SDS011;1352;48.446;9.156;2022-09-28T04:35:57;0.57;;;0.57;;
2684;SDS011;1352;48.446;9.156;2022-09-28T04:38:24;0.60;;;0.60;;
2684;SDS011;1352;48.446;9.156;2022-09-28T04:40:53;0.70;;;0.70;;
2684;SDS011;1352;48.446;9.156;2022-09-28T04:43:20;0.60;;;0.50;;
2684;SDS011;1352;48.446;9.156;2022-09-28T04:45:47;1.53;;;0.87;;
2684;SDS011;1352;48.446;9.156;2022-09-28T04:48:14;2.20;;;1.00;;
2684;SDS011;1352;48.446;9.156;2022-09-28T04:50:41;2.60;;;1.10;;
2684;SDS011;1352;48.446;9.156;2022-09-28T04:53:08;0.97;;;0.97;;
2684;SDS011;1352;48.446;9.156;2022-09-28T04:55:35;0.80;;;0.80;;
2684;SDS011;1352;48.446;9.156;2022-09-28T04:58:04;1.00;;;1.00;;
2684;SDS011;1352;48.446;9.156;2022-09-28T05:00:31;1.13;;;1.03;;
2684;SDS011;1352;48.446;9.156;2022-09-28T05:02:59;2.20;;;1.33;;
2684;SDS011;1352;48.446;9.156;2022-09-28T05:05:26;1.13;;;1.00;;
2684;SDS011;1352;48.446;9.156;2022-09-28T05:07:55;1.03;;;0.93;;
2684;SDS011;1352;48.446;9.156;2022-09-28T05:10:24;1.37;;;1.27;;
2684;SDS011;1352;48.446;9.156;2022-09-28T05:12:51;1.27;;;1.17;;
2684;SDS011;1352;48.446;9.156;2022-09-28T05:15:20;1.73;;;0.90;;
2684;SDS011;1352;48.446;9.156;2022-09-28T05:17:47;1.83;;;1.00;;
2684;SDS011;1352;48.446;9.156;2022-09-28T05:20:14;1.13;;;0.87;;
2684;SDS011;1352;48.446;9.156;2022-09-28T05:22:41;1.37;;;1.10;;
2684;SDS011;1352;48.446;9.156;2022-09-28T05:25:08;1.47;;;1.30;;
2684;SDS011;1352;48.446;9.156;2022-09-28T05:27:35;0.93;;;0.83;;
2684;SDS011;1352;48.446;9.156;2022-09-28T05:30:02;0.87;;;0.83;;
2684;SDS011;1352;48.446;9.156;2022-09-28T05:32:31;1.30;;;1.20;;
2684;SDS011;1352;48.446;9.156;2022-09-28T05:35:01;1.10;;;1.10;;
2684;SDS011;1352;48.446;9.156;2022-09-28T05:37:30;1.70;;;1.50;;
2684;SDS011;1352;48.446;9.156;2022-09-28T05:39:57;2.17;;;1.73;;
2684;SDS011;1352;48.446;9.156;2022-09-28T05:42:27;2.33;;;2.13;;
2684;SDS011;1352;48.446;9.156;2022-09-28T05:44:55;1.60;;;1.50;;
2684;SDS011;1352;48.446;9.156;2022-09-28T05:47:25;2.27;;;2.17;;
2684;SDS011;1352;48.446;9.156;2022-09-28T05:49:57;1.20;;;1.10;;
2684;SDS011;1352;48.446;9.156;2022-09-28T05:52:24;1.50;;;1.40;;
2684;SDS011;1352;48.446;9.156;2022-09-28T05:54:51;1.83;;;1.17;;
2684;SDS011;1352;48.446;9.156;2022-09-28T05:57:18;4.30;;;1.47;;
2684;SDS011;1352;48.446;9.156;2022-09-28T05:59:45;1.47;;;1.37;;
2684;SDS011;1352;48.446;9.156;2022-09-28T06:02:12;1.60;;;1.50;;
2684;SDS011;1352;48.446;9.156;2022-09-28T06:04:39;2.20;;;2.10;;
2684;SDS011;1352;48.446;9.156;2022-09-28T06:07:08;1.50;;;1.30;;
2684;SDS011;1352;48.446;9.156;2022-09-28T06:09:36;1.20;;;1.10;;
2684;SDS011;1352;48.446;9.156;2022-09-28T06:12:03;1.53;;;1.40;;
2684;SDS011;1352;48.446;9.156;2022-09-28T06:14:30;1.57;;;1.47;;
2684;SDS011;1352;48.446;9.156;2022-09-28T06:16:57;1.93;;;1.77;;
2684;SDS011;1352;48.446;9.156;2022-09-28T06:19:24;2.40;;;1.57;;
2684;SDS011;1352;48.446;9.156;2022-09-28T06:21:51;2.37;;;1.50;;
2684;SDS011;1352;48.446;9.156;2022-09-28T06:24:19;2.30;;;1.30;;
2684;SDS011;1352;48.446;9.156;2022-09-28T06:26:46;1.40;;;1.30;;
2684;SDS011;1352;48.446;9.156;2022-09-28T06:29:13;1.93;;;1.20;;
2684;SDS011;1352;48.446;9.156;2022-09-28T06:31:43;1.57;;;1.40;;
2684;SDS011;1352;48.446;9.156;2022-09-28T06:34:10;1.70;;;1.60;;
2684;SDS011;1352;48.446;9.156;2022-09-28T06:36:37;1.83;;;1.40;;
2684;SDS011;1352;48.446;9.156;2022-09-28T06:39:04;2.00;;;1.30;;
2684;SDS011;1352;48.446;9.156;2022-09-28T06:41:33;4.57;;;1.37;;
2684;SDS011;1352;48.446;9.156;2022-09-28T06:44:00;1.30;;;1.10;;
2684;SDS011;1352;48.446;9.156;2022-09-28T06:46:30;2.00;;;1.53;;
2684;SDS011;1352;48.446;9.156;2022-09-28T06:48:57;1.67;;;1.30;;
2684;SDS011;1352;48.446;9.156;2022-09-28T06:51:24;0.93;;;0.93;;
2684;SDS011;1352;48.446;9.156;2022-09-28T06:53:51;0.90;;;0.90;;
2684;SDS011;1352;48.446;9.156;2022-09-28T06:56:23;1.00;;;0.97;;
2684;SDS011;1352;48.446;9.156;2022-09-28T06:58:52;1.10;;;1.00;;
2684;SDS011;1352;48.446;9.156;2022-09-28T07:01:19;0.80;;;0.77;;
2684;SDS011;1352;48.446;9.156;2022-09-28T07:03:46;1.40;;;1.00;;
2684;SDS011;1352;48.446;9.156;2022-09-28T07:06:13;1.03;;;1.03;;
2684;SDS011;1352;48.446;9.156;2022-09-28T07:08:40;1.50;;;1.40;;
2684;SDS011;1352;48.446;9.156;2022-09-28T07:11:11;1.80;;;1.33;;
2684;SDS011;1352;48.446;9.156;2022-09-28T07:13:39;1.70;;;1.03;;
2684;SDS011;1352;48.446;9.156;2022-09-28T07:16:08;1.47;;;1.37;;
2684;SDS011;1352;48.446;9.156;2022-09-28T07:18:36;1.37;;;1.27;;
2684;SDS011;1352;48.446;9.156;2022-09-28T07:21:03;1.87;;;1.77;;
2684;SDS011;1352;48.446;9.156;2022-09-28T07:23:31;1.50;;;1.40;;
2684;SDS011;1352;48.446;9.156;2022-09-28T07:26:02;1.13;;;1.03;;
2684;SDS011;1352;48.446;9.156;2022-09-28T07:28:30;1.13;;;1.00;;
2684;SDS011;1352;48.446;9.156;2022-09-28T07:31:01;1.23;;;1.13;;
2684;SDS011;1352;48.446;9.156;2022-09-28T07:33:30;1.10;;;1.10;;
2684;SDS011;1352;48.446;9.156;2022-09-28T07:35:57;1.10;;;1.10;;
2684;SDS011;1352;48.446;9.156;2022-09-28T07:38:30;1.27;;;1.17;;
2684;SDS011;1352;48.446;9.156;2022-09-28T07:40:57;3.60;;;1.73;;
2684;SDS011;1352;48.446;9.156;2022-09-28T07:43:35;4.30;;;1.73;;
2684;SDS011;1352;48.446;9.156;2022-09-28T07:46:04;1.87;;;1.50;;
2684;SDS011;1352;48.446;9.156;2022-09-28T07:48:38;2.10;;;1.93;;
2684;SDS011;1352;48.446;9.156;2022-09-28T07:51:08;1.90;;;1.50;;
2684;SDS011;1352;48.446;9.156;2022-09-28T07:53:36;1.80;;;1.70;;
2684;SDS011;1352;48.446;9.156;2022-09-28T07:56:03;3.20;;;2.00;;
2684;SDS011;1352;48.446;9.156;2022-09-28T07:58:33;2.00;;;1.70;;
2684;SDS011;1352;48.446;9.156;2022-09-28T08:01:02;1.70;;;1.50;;
2684;SDS011;1352;48.446;9.156;2022-09-28T08:03:31;1.87;;;1.77;;
2684;SDS011;1352;48.446;9.156;2022-09-28T08:06:01;2.10;;;1.40;;
2684;SDS011;1352;48.446;9.156;2022-09-28T08:08:31;2.77;;;1.53;;
2684;SDS011;1352;48.446;9.156;2022-09-28T08:10:59;1.93;;;1.73;;
2684;SDS011;1352;48.446;9.156;2022-09-28T08:13:26;3.30;;;1.90;;
2684;SDS011;1352;48.446;9.156;2022-09-28T08:15:53;2.10;;;1.90;;
2684;SDS011;1352;48.446;9.156;2022-09-28T08:18:20;3.20;;;1.80;;
2684;SDS011;1352;48.446;9.156;2022-09-28T08:20:50;1.90;;;1.63;;
2684;SDS011;1352;48.446;9.156;2022-09-28T08:23:36;3.60;;;1.50;;
2684;SDS011;1352;48.446;9.156;2022-09-28T08:26:03;3.00;;;1.30;;
2684;SDS011;1352;48.446;9.156;2022-09-28T08:28:30;2.40;;;2.20;;
2684;SDS011;1352;48.446;9.156;2022-09-28T08:30:59;4.00;;;1.60;;
2684;SDS011;1352;48.446;9.156;2022-09-28T08:33:26;2.10;;;1.80;;
2684;SDS011;1352;48.446;9.156;2022-09-28T08:35:54;4.57;;;1.73;;
2684;SDS011;1352;48.446;9.156;2022-09-28T08:38:23;3.00;;;1.87;;
2684;SDS011;1352;48.446;9.156;2022-09-28T08:40:55;3.10;;;1.97;;
2684;SDS011;1352;48.446;9.156;2022-09-28T08:46:18;4.77;;;1.90;;
2684;SDS011;1352;48.446;9.156;2022-09-28T08:48:50;2.23;;;1.70;;
2684;SDS011;1352;48.446;9.156;2022-09-28T08:51:21;2.70;;;1.60;;
2684;SDS011;1352;48.446;9.156;2022-09-28T08:53:52;2.77;;;1.83;;
2684;SDS011;1352;48.446;9.156;2022-09-28T08:56:30;2.30;;;2.10;;
2684;SDS011;1352;48.446;9.156;2022-09-28T08:59:08;1.37;;;1.27;;
2684;SDS011;1352;48.446;9.156;2022-09-28T09:01:41;2.13;;;1.70;;
2684;SDS011;1352;48.446;9.156;2022-09-28T09:04:13;3.30;;;2.37;;
2684;SDS011;1352;48.446;9.156;2022-09-28T09:06:48;2.00;;;1.67;;
2684;SDS011;1352;48.446;9.156;2022-09-28T09:09:39;3.10;;;2.10;;
2684;SDS011;1352;48.446;9.156;2022-09-28T09:12:22;2.00;;;1.80;;
2684;SDS011;1352;48.446;9.156;2022-09-28T09:15:12;4.60;;;2.07;;
2684;SDS011;1352;48.446;9.156;2022-09-28T09:18:03;2.13;;;2.03;;
2684;SDS011;1352;48.446;9.156;2022-09-28T09:20:44;3.10;;;2.47;;
2684;SDS011;1352;48.446;9.156;2022-09-28T09:23:16;2.90;;;2.53;;
2684;SDS011;1352;48.446;9.156;2022-09-28T09:25:47;4.47;;;2.67;;
2684;SDS011;1352;48.446;9.156;2022-09-28T09:28:28;4.00;;;2.23;;
2684;SDS011;1352;48.446;9.156;2022-09-28T09:31:16;4.97;;;2.60;;
2684;SDS011;1352;48.446;9.156;2022-09-28T09:33:56;3.70;;;3.27;;
2684;SDS011;1352;48.446;9.156;2022-09-28T09:36:39;3.47;;;2.33;;
2684;SDS011;1352;48.446;9.156;2022-09-28T09:39:21;3.30;;;2.47;;
2684;SDS011;1352;48.446;9.156;2022-09-28T09:42:04;6.83;;;2.50;;
2684;SDS011;1352;48.446;9.156;2022-09-28T09:45:00;2.50;;;2.30;;
2684;SDS011;1352;48.446;9.156;2022-09-28T09:47:36;5.40;;;2.77;;
2684;SDS011;1352;48.446;9.156;2022-09-28T09:50:08;7.67;;;3.93;;
2684;SDS011;1352;48.446;9.156;2022-09-28T09:52:44;3.83;;;2.63;;
2684;SDS011;1352;48.446;9.156;2022-09-28T09:55:20;3.10;;;2.30;;
2684;SDS011;1352;48.446;9.156;2022-09-28T09:57:53;4.97;;;2.67;;
2684;SDS011;1352;48.446;9.156;2022-09-28T10:00:26;3.50;;;2.50;;
2684;SDS011;1352;48.446;9.156;2022-09-28T10:02:54;9.23;;;3.20;;
2684;SDS011;1352;48.446;9.156;2022-09-28T10:05:25;6.27;;;2.63;;
2684;SDS011;1352;48.446;9.156;2022-09-28T10:07:57;7.10;;;2.60;;
2684;SDS011;1352;48.446;9.156;2022-09-28T10:10:29;4.23;;;2.63;;
2684;SDS011;1352;48.446;9.156;2022-09-28T10:13:01;5.13;;;3.10;;
2684;SDS011;1352;48.446;9.156;2022-09-28T10:15:31;4.93;;;2.23;;
2684;SDS011;1352;48.446;9.156;2022-09-28T10:18:01;3.40;;;2.53;;
2684;SDS011;1352;48.446;9.156;2022-09-28T10:20:32;3.20;;;2.27;;
2684;SDS011;1352;48.446;9.156;2022-09-28T10:23:02;6.90;;;2.43;;
2684;SDS011;1352;48.446;9.156;2022-09-28T10:25:32;3.70;;;2.37;;
2684;SDS011;1352;48.446;9.156;2022-09-28T10:28:03;4.27;;;1.80;;
2684;SDS011;1352;48.446;9.156;2022-09-28T10:30:35;4.73;;;2.40;;
2684;SDS011;1352;48.446;9.156;2022-09-28T10:33:25;2.70;;;2.07;;
2684;SDS011;1352;48.446;9.156;2022-09-28T10:35:55;7.50;;;2.10;;
2684;SDS011;1352;48.446;9.156;2022-09-28T10:38:22;2.53;;;2.33;;
2684;SDS011;1352;48.446;9.156;2022-09-28T10:40:50;6.20;;;2.70;;
2684;SDS011;1352;48.446;9.156;2022-09-28T10:43:20;3.83;;;2.47;;
2684;SDS011;1352;48.446;9.156;2022-09-28T10:45:59;2.53;;;2.33;;
2684;SDS011;1352;48.446;9.156;2022-09-28T10:48:33;3.70;;;2.10;;
2684;SDS011;1352;48.446;9.156;2022-09-28T10:51:13;3.27;;;2.10;;
2684;SDS011;1352;48.446;9.156;2022-09-28T10:53:40;2.70;;;1.90;;
2684;SDS011;1352;48.446;9.156;2022-09-28T10:56:17;4.33;;;2.50;;
2684;SDS011;1352;48.446;9.156;2022-09-28T10:58:45;2.90;;;2.40;;
2684;SDS011;1352;48.446;9.156;2022-09-28T11:01:14;4.13;;;1.83;;
2684;SDS011;1352;48.446;9.156;2022-09-28T11:03:48;2.90;;;2.43;;
2684;SDS011;1352;48.446;9.156;2022-09-28T11:06:24;2.57;;;2.20;;
2684;SDS011;1352;48.446;9.156;2022-09-28T11:08:54;2.73;;;2.53;;
2684;SDS011;1352;48.446;9.156;2022-09-28T11:11:23;4.00;;;2.60;;
2684;SDS011;1352;48.446;9.156;2022-09-28T11:13:51;2.47;;;2.27;;
2684;SDS011;1352;48.446;9.156;2022-09-28T11:16:23;2.00;;;1.80;;
2684;SDS011;1352;48.446;9.156;2022-09-28T11:18:52;4.70;;;2.43;;
2684;SDS011;1352;48.446;9.156;2022-09-28T11:21:21;3.73;;;2.50;;
2684;SDS011;1352;48.446;9.156;2022-09-28T11:23:57;3.10;;;2.27;;
2684;SDS011;1352;48.446;9.156;2022-09-28T11:26:33;7.30;;;2.47;;
2684;SDS011;1352;48.446;9.156;2022-09-28T11:29:03;6.57;;;3.70;;
2684;SDS011;1352;48.446;9.156;2022-09-28T11:31:33;3.17;;;2.10;;
2684;SDS011;1352;48.446;9.156;2022-09-28T11:34:02;2.40;;;1.73;;
2684;SDS011;1352;48.446;9.156;2022-09-28T11:36:39;1.90;;;1.80;;
2684;SDS011;1352;48.446;9.156;2022-09-28T11:39:20;5.70;;;2.33;;
2684;SDS011;1352;48.446;9.156;2022-09-28T11:42:01;3.63;;;2.07;;
2684;SDS011;1352;48.446;9.156;2022-09-28T11:44:37;4.10;;;1.90;;
2684;SDS011;1352;48.446;9.156;2022-09-28T11:47:14;3.27;;;2.10;;
2684;SDS011;1352;48.446;9.156;2022-09-28T11:49:52;2.27;;;2.07;;
2684;SDS011;1352;48.446;9.156;2022-09-28T11:52:24;3.70;;;2.27;;
2684;SDS011;1352;48.446;9.156;2022-09-28T11:55:00;5.93;;;2.17;;
2684;SDS011;1352;48.446;9.156;2022-09-28T11:57:33;1.83;;;1.57;;
2684;SDS011;1352;48.446;9.156;2022-09-28T12:00:04;4.10;;;2.70;;
2684;SDS011;1352;48.446;9.156;2022-09-28T12:02:38;2.27;;;1.60;;
2684;SDS011;1352;48.446;9.156;2022-09-28T12:05:12;3.50;;;1.90;;
2684;SDS011;1352;48.446;9.156;2022-09-28T12:07:47;3.20;;;2.27;;
2684;SDS011;1352;48.446;9.156;2022-09-28T12:10:18;3.60;;;2.27;;
2684;SDS011;1352;48.446;9.156;2022-09-28T12:12:49;4.43;;;3.03;;
2684;SDS011;1352;48.446;9.156;2022-09-28T12:15:23;2.37;;;1.80;;
2684;SDS011;1352;48.446;9.156;2022-09-28T12:17:54;3.20;;;2.10;;
2684;SDS011;1352;48.446;9.156;2022-09-28T12:20:28;2.23;;;1.90;;
2684;SDS011;1352;48.446;9.156;2022-09-28T12:23:00;2.07;;;1.90;;
2684;SDS011;1352;48.446;9.156;2022-09-28T12:25:33;2.70;;;1.93;;
2684;SDS011;1352;48.446;9.156;2022-09-28T12:28:06;5.80;;;2.50;;
2684;SDS011;1352;48.446;9.156;2022-09-28T12:30:42;3.57;;;2.63;;
2684;SDS011;1352;48.446;9.156;2022-09-28T12:33:14;2.50;;;2.07;;
2684;SDS011;1352;48.446;9.156;2022-09-28T12:35:46;9.07;;;2.10;;
2684;SDS011;1352;48.446;9.156;2022-09-28T12:38:31;2.30;;;2.10;;
2684;SDS011;1352;48.446;9.156;2022-09-28T12:41:12;4.90;;;2.40;;
2684;SDS011;1352;48.446;9.156;2022-09-28T12:44:02;5.13;;;2.30;;
2684;SDS011;1352;48.446;9.156;2022-09-28T12:46:56;4.20;;;1.77;;
2684;SDS011;1352;48.446;9.156;2022-09-28T12:49:46;2.37;;;2.17;;
2684;SDS011;1352;48.446;9.156;2022-09-28T12:52:34;2.50;;;2.30;;
2684;SDS011;1352;48.446;9.156;2022-09-28T12:55:21;2.37;;;2.20;;
2684;SDS011;1352;48.446;9.156;2022-09-28T12:57:56;2.13;;;1.93;;
2684;SDS011;1352;48.446;9.156;2022-09-28T13:00:30;2.77;;;1.80;;
2684;SDS011;1352;48.446;9.156;2022-09-28T13:03:13;2.20;;;1.53;;
2684;SDS011;1352;48.446;9.156;2022-09-28T13:09:18;2.97;;;2.20;;
2684;SDS011;1352;48.446;9.156;2022-09-28T13:11:51;1.70;;;1.60;;
2684;SDS011;1352;48.446;9.156;2022-09-28T13:14:33;2.37;;;2.23;;
2684;SDS011;1352;48.446;9.156;2022-09-28T13:17:16;2.53;;;2.33;;
2684;SDS011;1352;48.446;9.156;2022-09-28T13:19:53;3.20;;;2.23;;
2684;SDS011;1352;48.446;9.156;2022-09-28T13:22:26;2.10;;;1.90;;
2684;SDS011;1352;48.446;9.156;2022-09-28T13:25:03;4.63;;;3.03;;
2684;SDS011;1352;48.446;9.156;2022-09-28T13:27:37;1.77;;;1.67;;
2684;SDS011;1352;48.446;9.156;2022-09-28T13:30:11;2.93;;;2.13;;
2684;SDS011;1352;48.446;9.156;2022-09-28T13:32:41;2.97;;;2.50;;
2684;SDS011;1352;48.446;9.156;2022-09-28T13:35:11;2.30;;;1.80;;
2684;SDS011;1352;48.446;9.156;2022-09-28T13:37:44;3.60;;;2.67;;
2684;SDS011;1352;48.446;9.156;2022-09-28T13:40:13;3.63;;;2.30;;
2684;SDS011;1352;48.446;9.156;2022-09-28T13:45:40;4.17;;;2.40;;
2684;SDS011;1352;48.446;9.156;2022-09-28T13:48:23;2.40;;;2.20;;
2684;SDS011;1352;48.446;9.156;2022-09-28T13:51:09;2.80;;;2.07;;
2684;SDS011;1352;48.446;9.156;2022-09-28T13:53:52;4.90;;;2.43;;
2684;SDS011;1352;48.446;9.156;2022-09-28T13:56:49;2.93;;;2.27;;
2684;SDS011;1352;48.446;9.156;2022-09-28T13:59:24;3.73;;;2.60;;
2684;SDS011;1352;48.446;9.156;2022-09-28T14:01:55;7.83;;;5.20;;
2684;SDS011;1352;48.446;9.156;2022-09-28T14:07:20;6.10;;;3.50;;
2684;SDS011;1352;48.446;9.156;2022-09-28T14:12:45;3.13;;;2.83;;
2684;SDS011;1352;48.446;9.156;2022-09-28T14:18:19;3.20;;;2.67;;
2684;SDS011;1352;48.446;9.156;2022-09-28T14:20:55;7.60;;;3.23;;
2684;SDS011;1352;48.446;9.156;2022-09-28T14:26:47;2.90;;;2.53;;
2684;SDS011;1352;48.446;9.156;2022-09-28T14:29:31;3.57;;;2.90;;
2684;SDS011;1352;48.446;9.156;2022-09-28T14:32:03;7.80;;;3.40;;
2684;SDS011;1352;48.446;9.156;2022-09-28T14:34:45;3.13;;;2.63;;
2684;SDS011;1352;48.446;9.156;2022-09-28T14:37:17;4.10;;;2.43;;
2684;SDS011;1352;48.446;9.156;2022-09-28T14:40:07;4.93;;;2.70;;
2684;SDS011;1352;48.446;9.156;2022-09-28T14:45:49;7.97;;;2.60;;
2684;SDS011;1352;48.446;9.156;2022-09-28T14:48:21;4.07;;;2.90;;
2684;SDS011;1352;48.446;9.156;2022-09-28T14:54:14;6.33;;;2.87;;
2684;SDS011;1352;48.446;9.156;2022-09-28T14:56:48;3.60;;;2.50;;
2684;SDS011;1352;48.446;9.156;2022-09-28T14:59:38;4.43;;;2.60;;
2684;SDS011;1352;48.446;9.156;2022-09-28T15:02:11;3.70;;;3.40;;
2684;SDS011;1352;48.446;9.156;2022-09-28T15:04:45;6.20;;;2.97;;
2684;SDS011;1352;48.446;9.156;2022-09-28T15:07:17;3.93;;;2.83;;
2684;SDS011;1352;48.446;9.156;2022-09-28T15:09:46;5.53;;;2.90;;
2684;SDS011;1352;48.446;9.156;2022-09-28T15:12:15;3.50;;;3.20;;
2684;SDS011;1352;48.446;9.156;2022-09-28T15:14:45;4.47;;;2.63;;
2684;SDS011;1352;48.446;9.156;2022-09-28T15:17:17;3.77;;;2.63;;
2684;SDS011;1352;48.446;9.156;2022-09-28T15:19:50;4.60;;;3.00;;
2684;SDS011;1352;48.446;9.156;2022-09-28T15:22:27;3.83;;;2.80;;
2684;SDS011;1352;48.446;9.156;2022-09-28T15:24:57;9.27;;;3.20;;
2684;SDS011;1352;48.446;9.156;2022-09-28T15:27:33;3.87;;;3.03;;
2684;SDS011;1352;48.446;9.156;2022-09-28T15:30:10;3.80;;;3.20;;
2684;SDS011;1352;48.446;9.156;2022-09-28T15:32:47;4.67;;;3.03;;
2684;SDS011;1352;48.446;9.156;2022-09-28T15:35:17;5.53;;;2.60;;
2684;SDS011;1352;48.446;9.156;2022-09-28T15:37:45;3.57;;;2.80;;
2684;SDS011;1352;48.446;9.156;2022-09-28T15:40:14;3.30;;;2.70;;
2684;SDS011;1352;48.446;9.156;2022-09-28T15:42:44;4.90;;;2.33;;
2684;SDS011;1352;48.446;9.156;2022-09-28T15:45:22;3.50;;;2.50;;
2684;SDS011;1352;48.446;9.156;2022-09-28T15:47:55;2.70;;;2.50;;
2684;SDS011;1352;48.446;9.156;2022-09-28T15:50:52;2.93;;;2.70;;
2684;SDS011;1352;48.446;9.156;2022-09-28T15:53:23;5.87;;;2.90;;
2684;SDS011;1352;48.446;9.156;2022-09-28T15:55:51;3.27;;;2.60;;
2684;SDS011;1352;48.446;9.156;2022-09-28T15:58:29;5.17;;;2.80;;
2684;SDS011;1352;48.446;9.156;2022-09-28T16:07:18;6.90;;;3.33;;
2684;SDS011;1352;48.446;9.156;2022-09-28T16:09:55;3.77;;;3.47;;
2684;SDS011;1352;48.446;9.156;2022-09-28T16:12:24;3.87;;;3.50;;
2684;SDS011;1352;48.446;9.156;2022-09-28T16:14:56;5.03;;;3.23;;
2684;SDS011;1352;48.446;9.156;2022-09-28T16:17:29;4.17;;;3.20;;
2684;SDS011;1352;48.446;9.156;2022-09-28T16:20:00;5.60;;;3.73;;
2684;SDS011;1352;48.446;9.156;2022-09-28T16:22:29;4.33;;;3.60;;
2684;SDS011;1352;48.446;9.156;2022-09-28T16:24:58;3.90;;;3.43;;
2684;SDS011;1352;48.446;9.156;2022-09-28T16:27:27;4.80;;;3.23;;